Terminal Aerodrome Forecast
Issued by NWS

Home | Current Version | Previous Version | Text Only | Print | Product List | Glossary On
Versions: 1 2 3 4 5 6 7 8 9 10 11 12
004
FTUS45 KGGW 162320
TAFSDY
TAF
KSDY 162320Z 1700/1724 28006KT P6SM SKC
     FM170600 22005KT P6SM FEW240 WS020/28030KT
     FM171200 23008KT P6SM SKC
     FM171700 23012KT P6SM SKC=

USA.gov is the U.S. government's official web portal to all federal, state and local government web resources and services.